Time;durP1;ratioP1;P1;durP2;ratioP2;P2;SDS_P1;SDS_P2;PMS_P1;PMS_P2;Temp;Humidity;BMP_temperature;BMP_pressure;BME280_temperature;BME280_humidity;BME280_pressure;Samples;Min_cycle;Max_cycle;Signal;HPM_P1;HPM_P2
2021/11/23 00:01:20;;;;;;;8.80;4.85;;;2.90;99.90;;;;;;5051622;28;20072;-74
2021/11/23 00:03:52;;;;;;;6.15;4.20;;;2.90;99.90;;;;;;5051646;28;20491;-73
2021/11/23 00:06:19;;;;;;;8.52;4.85;;;2.90;99.90;;;;;;5051150;28;20144;-74
2021/11/23 00:08:46;;;;;;;6.63;4.30;;;2.80;99.90;;;;;;5034815;28;20127;-74
2021/11/23 00:11:17;;;;;;;8.27;4.82;;;2.80;99.90;;;;;;5035557;28;20124;-74
2021/11/23 00:13:49;;;;;;;7.57;4.97;;;2.80;99.90;;;;;;5035744;28;20055;-73
2021/11/23 00:16:17;;;;;;;5.15;4.15;;;2.80;99.90;;;;;;5052843;28;20044;-74
2021/11/23 00:18:50;;;;;;;6.45;4.70;;;2.70;99.90;;;;;;5035366;28;20423;-74
2021/11/23 00:21:22;;;;;;;9.38;5.97;;;2.70;99.90;;;;;;5052938;28;20049;-73
2021/11/23 00:23:49;;;;;;;8.52;5.13;;;2.70;99.90;;;;;;5050377;28;20037;-74
2021/11/23 00:26:22;;;;;;;10.93;5.30;;;2.70;99.90;;;;;;5052411;28;20579;-74
2021/11/23 00:28:54;;;;;;;8.23;5.15;;;2.60;99.90;;;;;;5051066;28;20471;-74
2021/11/23 00:31:26;;;;;;;6.78;4.88;;;2.60;99.90;;;;;;5050997;28;20041;-74
2021/11/23 00:33:53;;;;;;;7.22;5.00;;;2.60;99.90;;;;;;5034474;28;20057;-74
2021/11/23 00:36:19;;;;;;;6.28;4.47;;;2.60;99.90;;;;;;5051285;28;20132;-74
2021/11/23 00:38:51;;;;;;;6.93;4.68;;;2.60;99.90;;;;;;5050931;28;20045;-74
2021/11/23 00:41:23;;;;;;;8.32;5.30;;;2.70;99.90;;;;;;5050976;28;20063;-74
2021/11/23 00:43:50;;;;;;;8.85;5.22;;;2.60;99.90;;;;;;5050702;28;20045;-74
2021/11/23 00:46:22;;;;;;;7.75;5.50;;;2.60;99.90;;;;;;5050016;28;20064;-74
2021/11/23 00:48:54;;;;;;;8.98;5.03;;;2.70;99.90;;;;;;5051748;28;20037;-72
2021/11/23 00:51:20;;;;;;;8.18;5.32;;;2.70;99.90;;;;;;5050722;28;20128;-74
2021/11/23 00:53:52;;;;;;;8.00;5.85;;;2.70;99.90;;;;;;5050944;28;20051;-74
2021/11/23 00:56:25;;;;;;;8.90;5.80;;;2.70;99.90;;;;;;5050710;28;20045;-74
2021/11/23 00:58:56;;;;;;;7.60;5.65;;;2.70;99.90;;;;;;5050471;28;20132;-74
2021/11/23 01:01:29;;;;;;;7.45;5.90;;;2.60;99.90;;;;;;5050626;28;20132;-73
2021/11/23 01:04:01;;;;;;;7.70;5.32;;;2.60;99.90;;;;;;5050521;28;20041;-74
2021/11/23 01:06:32;;;;;;;6.85;5.57;;;2.70;99.90;;;;;;5050444;28;20136;-74
2021/11/23 01:08:59;;;;;;;6.90;5.35;;;2.70;99.90;;;;;;5050180;28;20124;-74
2021/11/23 01:11:31;;;;;;;7.60;5.63;;;2.60;99.90;;;;;;5050382;28;20514;-73
2021/11/23 01:13:58;;;;;;;7.05;5.20;;;2.60;99.90;;;;;;5050257;28;20156;-74
2021/11/23 01:16:25;;;;;;;6.30;4.68;;;2.50;99.90;;;;;;5050478;28;20128;-73
2021/11/23 01:18:56;;;;;;;8.50;5.78;;;2.50;99.90;;;;;;5034216;28;20040;-73
2021/11/23 01:21:29;;;;;;;5.95;5.03;;;2.60;99.90;;;;;;5050474;28;20049;-73
2021/11/23 01:23:56;;;;;;;6.80;4.97;;;2.60;99.90;;;;;;5050153;28;20044;-73
2021/11/23 01:26:27;;;;;;;7.88;5.28;;;2.60;99.90;;;;;;5050564;28;20041;-74
2021/11/23 01:28:54;;;;;;;6.75;5.32;;;2.60;99.90;;;;;;5050165;28;20156;-74
2021/11/23 01:31:21;;;;;;;6.75;5.07;;;2.60;99.90;;;;;;5033740;28;20143;-74
2021/11/23 01:33:53;;;;;;;6.65;5.40;;;2.50;99.90;;;;;;5050434;28;20044;-74
2021/11/23 01:36:20;;;;;;;8.25;4.95;;;2.60;99.90;;;;;;5033855;28;20095;-74
2021/11/23 01:38:47;;;;;;;6.70;5.05;;;2.60;99.90;;;;;;5050081;28;20152;-73
2021/11/23 01:41:18;;;;;;;6.32;4.68;;;2.50;99.90;;;;;;5050120;28;20411;-74
2021/11/23 01:43:50;;;;;;;6.25;5.03;;;2.60;99.90;;;;;;5034194;28;20041;-74
2021/11/23 01:46:23;;;;;;;7.72;5.07;;;2.50;99.90;;;;;;5050362;28;20119;-74
2021/11/23 01:48:55;;;;;;;8.25;5.05;;;2.50;99.90;;;;;;5049693;28;20574;-74
2021/11/23 01:51:26;;;;;;;7.97;5.70;;;2.50;99.90;;;;;;5049909;28;20032;-74
2021/11/23 01:53:53;;;;;;;7.32;4.85;;;2.50;99.90;;;;;;5050047;28;20068;-74
2021/11/23 01:56:20;;;;;;;6.63;4.68;;;2.50;99.90;;;;;;5049198;28;20087;-74
2021/11/23 01:58:47;;;;;;;6.88;4.68;;;2.50;99.90;;;;;;5052820;28;20099;-74
2021/11/23 02:01:15;;;;;;;7.93;4.53;;;2.50;99.90;;;;;;5054066;28;20132;-74
2021/11/23 02:03:41;;;;;;;7.13;5.30;;;2.40;99.90;;;;;;5052913;28;20129;-74
2021/11/23 02:06:09;;;;;;;6.35;4.45;;;2.40;99.90;;;;;;5053576;28;20064;-74
2021/11/23 02:08:41;;;;;;;6.22;4.32;;;2.40;99.90;;;;;;5053899;28;20044;-74
2021/11/23 02:11:13;;;;;;;6.97;5.18;;;2.40;99.90;;;;;;5054653;28;20438;-74
2021/11/23 02:13:45;;;;;;;6.72;4.65;;;2.40;99.90;;;;;;5037841;28;20502;-74
2021/11/23 02:16:17;;;;;;;8.93;5.50;;;2.40;99.90;;;;;;5053561;28;20045;-74
2021/11/23 02:18:49;;;;;;;8.48;5.25;;;2.40;99.90;;;;;;5053918;28;20522;-74
2021/11/23 02:21:21;;;;;;;7.60;5.18;;;2.40;99.90;;;;;;5053510;28;20044;-74
2021/11/23 02:23:47;;;;;;;8.15;4.72;;;2.40;99.90;;;;;;5053475;28;20143;-74
2021/11/23 02:26:14;;;;;;;7.43;4.72;;;2.40;99.90;;;;;;5053435;28;20123;-74
2021/11/23 02:28:46;;;;;;;7.20;4.47;;;2.30;99.90;;;;;;5054855;28;20051;-74
2021/11/23 02:31:13;;;;;;;9.02;4.85;;;2.40;99.90;;;;;;5053080;28;20468;-74
2021/11/23 02:33:40;;;;;;;8.65;4.90;;;2.30;99.90;;;;;;5053477;28;20045;-74
2021/11/23 02:36:12;;;;;;;6.50;4.97;;;2.40;99.90;;;;;;5053299;28;20051;-74
2021/11/23 02:38:41;;;;;;;6.97;4.43;;;2.30;99.90;;;;;;5053563;28;20136;-74
2021/11/23 02:41:13;;;;;;;;;;;2.30;99.90;;;;;;5053350;28;20044;-74
2021/11/23 02:43:41;;;;;;;6.65;4.57;;;2.30;99.90;;;;;;5055276;28;19991;-73
2021/11/23 02:46:14;;;;;;;7.20;4.73;;;2.30;99.90;;;;;;5054574;28;20100;-74
2021/11/23 02:48:46;;;;;;;7.68;4.38;;;2.30;99.90;;;;;;5053225;28;20382;-74
2021/11/23 02:53:40;;;;;;;5.93;4.15;;;2.20;99.90;;;;;;5054363;28;20068;-74
2021/11/23 02:56:07;;;;;;;6.32;4.80;;;2.20;99.90;;;;;;5052907;28;20074;-74
2021/11/23 02:58:35;;;;;;;7.25;4.45;;;2.20;99.90;;;;;;5052144;28;20045;-74
2021/11/23 03:01:09;;;;;;;6.80;4.33;;;2.10;99.90;;;;;;5036685;28;20410;-73
2021/11/23 03:03:41;;;;;;;6.35;4.15;;;2.00;99.90;;;;;;5052725;28;20378;-74
2021/11/23 03:06:16;;;;;;;6.45;4.38;;;2.00;99.90;;;;;;5036876;28;20470;-75
2021/11/23 03:08:50;;;;;;;6.55;4.80;;;2.00;99.90;;;;;;5053399;28;20263;-74
2021/11/23 03:11:23;;;;;;;6.35;4.38;;;1.90;99.90;;;;;;5036569;28;20103;-74
2021/11/23 03:13:55;;;;;;;7.10;4.45;;;1.80;99.90;;;;;;5036791;28;20048;-74
2021/11/23 03:16:22;;;;;;;5.75;4.38;;;1.80;99.90;;;;;;5052290;28;20071;-74
2021/11/23 03:18:49;;;;;;;7.05;4.25;;;1.70;99.90;;;;;;5052557;28;20069;-74
2021/11/23 03:21:15;;;;;;;6.05;4.05;;;1.70;99.90;;;;;;5053246;28;20132;-74
2021/11/23 03:23:42;;;;;;;7.07;4.82;;;1.60;99.90;;;;;;5052490;28;20072;-74
2021/11/23 03:26:10;;;;;;;6.97;5.57;;;1.60;99.90;;;;;;5052550;28;20068;-74
2021/11/23 03:28:42;;;;;;;6.70;4.68;;;1.50;99.90;;;;;;5052456;28;20128;-73
2021/11/23 03:31:14;;;;;;;6.75;4.60;;;1.50;99.90;;;;;;5051916;28;20423;-73
2021/11/23 03:33:45;;;;;;;5.72;4.03;;;1.50;99.90;;;;;;5052224;28;20147;-74
2021/11/23 03:36:17;;;;;;;7.20;3.72;;;1.40;99.90;;;;;;5053422;28;20588;-74
2021/11/23 03:38:49;;;;;;;5.40;4.20;;;1.40;99.90;;;;;;5053621;28;20040;-74
2021/11/23 03:41:16;;;;;;;5.60;4.00;;;1.40;99.90;;;;;;5052959;28;20123;-75
2021/11/23 03:43:42;;;;;;;6.10;4.28;;;1.40;99.90;;;;;;5035387;28;20073;-74
2021/11/23 03:46:09;;;;;;;6.00;4.55;;;1.40;99.90;;;;;;5052269;28;20064;-74
2021/11/23 03:48:36;;;;;;;6.70;4.55;;;1.30;99.90;;;;;;5053381;28;20132;-74
2021/11/23 03:51:07;;;;;;;5.90;4.30;;;1.30;99.90;;;;;;5051807;28;20033;-74
2021/11/23 03:53:34;;;;;;;5.68;3.83;;;1.30;99.90;;;;;;5035218;28;20595;-74
2021/11/23 03:56:06;;;;;;;6.32;4.43;;;1.30;99.90;;;;;;5036167;28;20049;-74
2021/11/23 03:58:39;;;;;;;7.95;4.70;;;1.30;99.90;;;;;;5052155;28;20037;-74
2021/11/23 04:01:07;;;;;;;7.13;4.70;;;1.20;99.90;;;;;;5051535;28;20196;-73
2021/11/23 04:03:39;;;;;;;9.23;4.85;;;1.20;99.90;;;;;;5051758;28;20049;-74
2021/11/23 04:06:06;;;;;;;6.32;4.57;;;1.10;99.90;;;;;;5052757;28;20079;-75
2021/11/23 04:08:33;;;;;;;8.27;5.30;;;1.10;99.90;;;;;;5051651;28;20045;-75
2021/11/23 04:11:04;;;;;;;7.70;5.07;;;1.10;99.90;;;;;;5052656;28;20121;-73
2021/11/23 04:13:37;;;;;;;13.60;6.82;;;1.10;99.90;;;;;;5051325;28;20045;-74
2021/11/23 04:16:09;;;;;;;9.57;6.93;;;1.10;99.90;;;;;;5051718;28;20407;-75
2021/11/23 04:18:40;;;;;;;10.63;7.13;;;1.10;99.90;;;;;;5051682;28;20045;-74
2021/11/23 04:21:07;;;;;;;10.93;6.32;;;1.10;99.90;;;;;;5050884;28;20049;-74
2021/11/23 04:23:39;;;;;;;7.85;5.75;;;1.10;99.90;;;;;;5035493;28;20135;-74
2021/11/23 04:26:11;;;;;;;6.78;4.90;;;1.10;99.90;;;;;;5035438;28;20079;-75
2021/11/23 04:28:43;;;;;;;7.50;5.60;;;1.10;99.90;;;;;;5051499;28;20559;-74
2021/11/23 04:31:14;;;;;;;7.13;5.22;;;1.20;99.90;;;;;;5044405;28;20124;-74
2021/11/23 04:33:46;;;;;;;8.05;5.50;;;1.10;99.90;;;;;;5044198;28;20052;-74
2021/11/23 04:36:18;;;;;;;7.70;5.13;;;1.10;99.90;;;;;;5049120;28;20116;-73
2021/11/23 04:38:50;;;;;;;7.65;5.60;;;1.10;99.90;;;;;;5050636;28;20150;-74
2021/11/23 04:41:16;;;;;;;8.55;5.78;;;1.20;99.90;;;;;;5049909;28;20569;-74
2021/11/23 04:43:48;;;;;;;6.55;4.95;;;1.20;99.90;;;;;;5049970;28;20041;-74
2021/11/23 04:46:20;;;;;;;6.50;4.82;;;1.20;99.90;;;;;;5049964;28;20037;-74
2021/11/23 04:48:47;;;;;;;7.90;5.10;;;1.20;99.90;;;;;;5051182;28;20033;-73
2021/11/23 04:51:14;;;;;;;7.20;5.28;;;1.10;99.90;;;;;;5049476;28;20055;-74
2021/11/23 04:53:41;;;;;;;7.65;5.22;;;1.10;99.90;;;;;;5049994;28;20127;-73
2021/11/23 04:56:10;;;;;;;8.77;5.30;;;1.10;99.90;;;;;;5050011;28;20468;-74
2021/11/23 04:58:36;;;;;;;8.40;5.28;;;1.10;99.90;;;;;;5033261;28;20530;-74
2021/11/23 05:01:08;;;;;;;7.30;5.50;;;1.10;99.90;;;;;;5049149;28;20131;-74
2021/11/23 05:03:36;;;;;;;8.57;5.15;;;1.10;99.90;;;;;;5049528;28;20049;-74
2021/11/23 05:06:03;;;;;;;7.45;5.10;;;1.10;99.90;;;;;;5049659;28;20124;-74
2021/11/23 05:08:30;;;;;;;8.45;4.95;;;1.10;99.90;;;;;;5049520;28;20198;-75
2021/11/23 05:11:01;;;;;;;9.98;6.63;;;1.10;99.90;;;;;;5050221;28;20408;-76
2021/11/23 05:13:33;;;;;;;9.00;5.28;;;1.10;99.90;;;;;;5049392;28;20059;-73
2021/11/23 05:16:06;;;;;;;7.57;5.07;;;1.00;99.90;;;;;;5049720;28;20045;-75
2021/11/23 05:18:38;;;;;;;7.32;5.15;;;1.00;99.90;;;;;;5051409;28;20037;-74
2021/11/23 05:21:04;;;;;;;6.55;4.95;;;1.00;99.90;;;;;;5058433;28;20054;-75
2021/11/23 05:23:31;;;;;;;7.45;6.00;;;1.00;99.90;;;;;;5053031;28;20503;-74
2021/11/23 05:26:03;;;;;;;19.52;11.10;;;1.00;99.90;;;;;;5067743;28;20094;-74
2021/11/23 05:28:30;;;;;;;161.48;56.85;;;1.00;99.90;;;;;;5029061;28;20140;-75
2021/11/23 05:30:57;;;;;;;76.38;33.58;;;1.00;99.90;;;;;;5028575;28;20132;-75
2021/11/23 05:33:29;;;;;;;41.10;20.08;;;1.00;99.90;;;;;;5033893;28;20154;-74
2021/11/23 05:36:01;;;;;;;17.92;10.00;;;1.00;99.90;;;;;;5031561;28;20038;-73
2021/11/23 05:38:27;;;;;;;10.25;7.63;;;1.00;99.90;;;;;;5033683;28;20095;-74
2021/11/23 05:40:54;;;;;;;10.93;7.10;;;1.00;99.90;;;;;;5030960;28;20124;-74
2021/11/23 05:43:28;;;;;;;9.85;6.22;;;1.00;99.90;;;;;;5041659;28;20404;-72
2021/11/23 05:45:59;;;;;;;9.25;6.80;;;1.00;99.90;;;;;;5034046;28;20045;-74
2021/11/23 05:48:26;;;;;;;10.88;7.45;;;1.00;99.90;;;;;;5050380;28;20116;-73
2021/11/23 05:50:53;;;;;;;9.88;6.65;;;1.10;99.90;;;;;;5047094;28;20124;-74
2021/11/23 05:53:20;;;;;;;9.55;7.30;;;1.10;99.90;;;;;;5047443;28;20037;-74
2021/11/23 05:55:47;;;;;;;14.65;7.50;;;1.10;99.90;;;;;;5045572;28;20053;-72
2021/11/23 05:58:18;;;;;;;13.02;5.65;;;1.10;99.90;;;;;;5011966;28;20450;-75
2021/11/23 06:00:45;;;;;;;11.32;7.43;;;1.10;99.90;;;;;;5023773;28;20571;-74
2021/11/23 06:03:12;;;;;;;9.15;7.10;;;1.10;99.90;;;;;;5027814;28;20107;-73
2021/11/23 06:05:39;;;;;;;8.93;6.72;;;1.10;99.90;;;;;;5046899;28;20116;-75
2021/11/23 06:08:11;;;;;;;10.27;6.88;;;1.00;99.90;;;;;;5049384;28;20076;-74
2021/11/23 06:10:42;;;;;;;7.72;5.70;;;1.00;99.90;;;;;;5048731;28;20041;-74
2021/11/23 06:13:11;;;;;;;7.68;5.75;;;1.00;99.90;;;;;;5049324;28;20140;-74
2021/11/23 06:15:45;;;;;;;7.25;4.55;;;1.00;99.90;;;;;;5046055;28;20137;-74
2021/11/23 06:18:14;;;;;;;8.00;5.57;;;1.00;99.90;;;;;;5049145;28;20049;-72
2021/11/23 06:20:48;;;;;;;;;;;1.00;99.90;;;;;;5049129;28;20072;-75
2021/11/23 06:23:20;;;;;;;8.68;6.22;;;1.00;99.90;;;;;;5049078;28;19944;-73
2021/11/23 06:25:49;;;;;;;8.77;5.57;;;1.10;99.90;;;;;;5033076;28;20041;-72
2021/11/23 06:28:22;;;;;;;12.68;6.35;;;1.10;99.90;;;;;;5048757;28;20045;-73
2021/11/23 06:30:54;;;;;;;12.77;7.40;;;1.00;99.90;;;;;;5027783;28;20491;-74
2021/11/23 06:33:23;;;;;;;10.52;7.65;;;1.10;99.90;;;;;;5043372;28;20071;-73
2021/11/23 06:35:55;;;;;;;12.65;9.43;;;1.10;99.90;;;;;;5024734;28;20044;-75
2021/11/23 06:38:26;;;;;;;10.98;7.85;;;1.10;99.90;;;;;;5026018;28;20047;-75
2021/11/23 06:40:58;;;;;;;8.32;6.03;;;1.00;99.90;;;;;;5047686;28;20044;-74
2021/11/23 06:43:25;;;;;;;10.13;6.93;;;1.00;99.90;;;;;;5031618;28;20041;-74
2021/11/23 06:45:57;;;;;;;11.43;7.35;;;1.00;99.90;;;;;;5035970;28;20055;-74
2021/11/23 06:48:29;;;;;;;18.83;11.52;;;1.10;99.90;;;;;;5045865;28;20116;-74
2021/11/23 06:51:00;;;;;;;13.95;9.07;;;1.40;99.90;;;;;;5044429;28;20124;-74
2021/11/23 06:53:32;;;;;;;28.58;15.57;;;1.40;99.90;;;;;;5031570;28;20041;-74
2021/11/23 06:56:05;;;;;;;19.00;11.95;;;1.40;99.90;;;;;;5032553;28;20128;-75
2021/11/23 06:58:36;;;;;;;16.58;10.48;;;1.30;99.90;;;;;;5024097;28;20045;-74
2021/11/23 07:01:03;;;;;;;11.63;7.70;;;1.30;99.90;;;;;;5040906;28;20079;-74
2021/11/23 07:03:35;;;;;;;9.45;7.30;;;1.30;99.90;;;;;;5053287;28;20424;-75
2021/11/23 07:06:02;;;;;;;8.80;6.70;;;1.20;99.90;;;;;;5051340;28;20075;-74
2021/11/23 07:08:35;;;;;;;14.20;11.30;;;1.20;99.90;;;;;;5051273;28;20033;-74
2021/11/23 07:11:05;;;;;;;12.13;8.70;;;1.20;99.90;;;;;;5050059;28;20559;-74
2021/11/23 07:13:35;;;;;;;10.82;8.75;;;1.20;99.90;;;;;;5035787;28;20047;-75
2021/11/23 07:16:03;;;;;;;8.50;6.18;;;1.20;99.90;;;;;;5032319;28;20088;-74
2021/11/23 07:18:29;;;;;;;7.78;5.90;;;1.20;99.90;;;;;;5015941;28;20133;-75
2021/11/23 07:20:57;;;;;;;8.85;6.35;;;1.20;99.90;;;;;;5044244;28;20045;-74
2021/11/23 07:23:25;;;;;;;10.23;6.47;;;1.20;99.90;;;;;;5052090;28;20045;-75
2021/11/23 07:25:51;;;;;;;9.50;6.20;;;1.20;99.90;;;;;;5052291;28;20120;-75
2021/11/23 07:28:23;;;;;;;7.47;5.70;;;1.20;99.90;;;;;;5052256;28;20116;-75
2021/11/23 07:30:57;;;;;;;9.77;6.85;;;1.20;99.90;;;;;;5052261;28;20112;-75
2021/11/23 07:33:24;;;;;;;10.32;6.80;;;1.20;99.90;;;;;;5053694;28;20123;-74
2021/11/23 07:35:56;;;;;;;11.73;7.35;;;1.10;99.90;;;;;;5036237;28;20045;-74
2021/11/23 07:38:28;;;;;;;9.30;5.80;;;1.10;99.90;;;;;;5052528;28;20123;-74
2021/11/23 07:40:59;;;;;;;7.35;5.55;;;1.10;99.90;;;;;;5051358;28;20143;-74
2021/11/23 07:43:26;;;;;;;9.68;7.15;;;1.10;99.90;;;;;;5051976;28;20087;-74
2021/11/23 07:45:53;;;;;;;7.50;5.97;;;1.10;99.90;;;;;;5034342;28;20077;-75
2021/11/23 07:48:25;;;;;;;9.70;6.68;;;1.10;99.90;;;;;;5048594;28;20033;-75
2021/11/23 07:50:51;;;;;;;9.48;7.40;;;1.10;99.90;;;;;;5050472;28;20065;-75
2021/11/23 07:53:18;;;;;;;15.93;10.52;;;1.10;99.90;;;;;;5043480;28;20562;-73
2021/11/23 07:55:51;;;;;;;15.45;8.75;;;1.10;99.90;;;;;;5050765;28;20053;-75
2021/11/23 07:58:18;;;;;;;12.52;8.38;;;1.10;99.90;;;;;;5051801;28;20515;-72
2021/11/23 08:00:50;;;;;;;13.93;6.93;;;1.10;99.90;;;;;;5034252;28;20045;-72
2021/11/23 08:03:22;;;;;;;9.02;6.13;;;1.20;99.90;;;;;;5052625;28;20047;-75
2021/11/23 08:05:49;;;;;;;13.90;7.68;;;1.30;99.90;;;;;;5034432;28;20077;-73
2021/11/23 08:08:16;;;;;;;19.88;10.27;;;1.30;99.90;;;;;;5034638;28;20051;-74
2021/11/23 08:10:43;;;;;;;16.40;10.00;;;1.30;99.90;;;;;;5050856;28;20072;-75
2021/11/23 08:13:10;;;;;;;10.30;7.00;;;1.30;99.90;;;;;;5050857;28;20195;-74
2021/11/23 08:15:42;;;;;;;11.38;6.90;;;1.30;99.90;;;;;;5034999;28;20051;-74
2021/11/23 08:18:10;;;;;;;9.65;6.82;;;1.30;99.90;;;;;;5050965;28;20068;-75
2021/11/23 08:20:37;;;;;;;9.55;6.63;;;1.30;99.90;;;;;;5033486;28;20083;-75
2021/11/23 08:23:05;;;;;;;8.93;6.32;;;1.40;99.90;;;;;;5050601;28;20128;-74
2021/11/23 08:25:40;;;;;;;7.37;5.13;;;1.40;99.90;;;;;;5051002;28;20124;-75
2021/11/23 08:28:12;;;;;;;11.48;7.50;;;1.40;99.90;;;;;;5038984;28;20128;-73
2021/11/23 08:30:39;;;;;;;10.68;6.85;;;1.40;99.90;;;;;;5051175;28;20143;-75
2021/11/23 08:33:11;;;;;;;12.52;7.82;;;1.40;99.90;;;;;;5050325;28;20144;-75
2021/11/23 08:35:43;;;;;;;11.80;9.10;;;1.40;99.90;;;;;;5034605;28;20132;-74
2021/11/23 08:38:11;;;;;;;15.68;10.23;;;1.50;99.90;;;;;;5050662;28;20164;-75
2021/11/23 08:40:43;;;;;;;10.18;7.35;;;1.50;99.90;;;;;;5049706;28;20504;-73
2021/11/23 08:43:15;;;;;;;9.93;8.05;;;1.50;99.90;;;;;;5034432;28;20051;-75
2021/11/23 08:45:47;;;;;;;10.75;8.05;;;1.50;99.90;;;;;;5034540;28;20131;-74
2021/11/23 08:48:13;;;;;;;10.40;7.68;;;1.60;99.90;;;;;;5033919;28;20049;-73
2021/11/23 08:50:46;;;;;;;11.15;7.25;;;1.60;99.90;;;;;;5049831;28;20144;-75
2021/11/23 08:53:18;;;;;;;12.25;8.27;;;1.70;99.90;;;;;;5049986;28;20056;-72
2021/11/23 08:55:49;;;;;;;11.90;7.68;;;1.80;99.90;;;;;;5050976;28;20047;-74
2021/11/23 08:58:16;;;;;;;12.70;8.40;;;1.90;99.90;;;;;;5050125;28;20132;-72
2021/11/23 09:00:48;;;;;;;12.98;8.20;;;1.90;99.90;;;;;;5032866;28;20045;-74
2021/11/23 09:03:15;;;;;;;11.80;8.27;;;1.90;99.90;;;;;;5049994;28;20120;-74
2021/11/23 09:05:51;;;;;;;13.82;9.07;;;1.90;99.90;;;;;;5034354;28;20108;-74
2021/11/23 09:08:22;;;;;;;16.00;8.32;;;1.90;99.90;;;;;;5049292;28;20040;-74
2021/11/23 09:10:49;;;;;;;14.23;8.85;;;1.90;99.90;;;;;;5049865;28;20045;-74
2021/11/23 09:13:16;;;;;;;14.35;8.57;;;2.00;99.90;;;;;;5033080;28;20468;-74
2021/11/23 09:15:43;;;;;;;19.40;12.73;;;2.00;99.90;;;;;;5049585;28;20587;-74
2021/11/23 09:18:10;;;;;;;20.65;10.75;;;2.00;99.90;;;;;;5048952;28;20132;-72
2021/11/23 09:20:44;;;;;;;14.40;8.75;;;2.10;99.90;;;;;;5028942;28;20124;-73
2021/11/23 09:23:16;;;;;;;13.50;8.52;;;2.10;99.90;;;;;;5043773;28;20045;-74
2021/11/23 09:25:47;;;;;;;12.05;8.70;;;2.10;99.90;;;;;;5046510;28;20041;-73
2021/11/23 09:28:19;;;;;;;12.60;7.07;;;2.20;99.90;;;;;;5043927;28;20039;-74
2021/11/23 09:30:51;;;;;;;10.05;8.15;;;2.10;99.90;;;;;;5044886;28;20179;-73
2021/11/23 09:33:27;;;;;;;13.88;8.50;;;2.20;99.90;;;;;;5030895;28;20051;-74
2021/11/23 09:35:59;;;;;;;13.45;8.38;;;2.30;99.90;;;;;;5043546;28;20045;-74
2021/11/23 09:38:30;;;;;;;12.25;7.47;;;2.30;99.90;;;;;;5050003;28;20507;-73
2021/11/23 09:40:57;;;;;;;10.80;7.55;;;2.30;99.90;;;;;;5046124;28;20128;-74
2021/11/23 09:43:24;;;;;;;10.40;6.82;;;2.30;99.90;;;;;;5029978;28;20418;-74
2021/11/23 09:45:56;;;;;;;10.77;7.95;;;2.40;99.90;;;;;;5049313;28;20384;-75
2021/11/23 09:48:28;;;;;;;10.57;7.43;;;2.40;99.90;;;;;;5049619;28;20128;-74
2021/11/23 09:50:54;;;;;;;11.48;7.85;;;2.50;99.90;;;;;;5048949;28;20135;-75
2021/11/23 09:53:26;;;;;;;9.48;6.90;;;2.50;99.90;;;;;;5033580;28;20041;-74
2021/11/23 09:55:58;;;;;;;15.65;7.60;;;2.60;99.90;;;;;;5049137;28;20116;-74
2021/11/23 09:58:28;;;;;;;10.05;7.57;;;2.60;99.90;;;;;;5033150;28;20072;-75
2021/11/23 10:01:07;;;;;;;10.82;6.80;;;2.70;99.90;;;;;;5042193;28;20049;-74
2021/11/23 10:03:40;;;;;;;11.98;7.13;;;2.80;99.90;;;;;;5049674;28;20045;-74
2021/11/23 10:06:19;;;;;;;10.48;7.88;;;2.70;99.90;;;;;;5049594;28;20075;-73
2021/11/23 10:08:54;;;;;;;10.68;8.63;;;2.80;99.90;;;;;;5049549;28;20518;-75
2021/11/23 10:11:32;;;;;;;15.63;8.32;;;2.80;99.90;;;;;;5049477;28;20480;-73
2021/11/23 10:14:05;;;;;;;23.63;9.40;;;2.70;99.90;;;;;;5050676;28;20136;-74
2021/11/23 10:16:43;;;;;;;15.90;10.77;;;2.80;99.90;;;;;;5031635;28;20047;-74
2021/11/23 10:19:15;;;;;;;13.15;8.82;;;2.80;99.90;;;;;;5051441;28;20288;-75
2021/11/23 10:21:51;;;;;;;13.70;10.05;;;2.80;99.90;;;;;;5035351;28;20525;-73
2021/11/23 10:24:23;;;;;;;11.50;8.27;;;2.80;99.90;;;;;;5050699;28;20044;-74
2021/11/23 10:26:51;;;;;;;33.13;14.77;;;2.90;99.90;;;;;;5048273;28;20092;-74
2021/11/23 10:29:18;;;;;;;28.73;15.90;;;2.90;99.90;;;;;;5044596;28;20137;-74
2021/11/23 10:31:46;;;;;;;17.13;10.75;;;2.80;99.90;;;;;;5042153;28;20048;-73
2021/11/23 10:34:18;;;;;;;32.70;16.55;;;2.80;99.90;;;;;;5054297;28;20438;-73
2021/11/23 10:36:48;;;;;;;25.67;13.65;;;2.90;99.90;;;;;;5052484;28;20095;-75
2021/11/23 10:39:19;;;;;;;13.82;9.20;;;2.90;99.90;;;;;;5052775;28;20483;-75
2021/11/23 10:41:53;;;;;;;12.05;8.32;;;2.90;99.90;;;;;;5035969;28;20047;-72
2021/11/23 10:44:31;;;;;;;14.43;8.73;;;2.90;99.90;;;;;;5031889;28;20042;-74
2021/11/23 10:47:06;;;;;;;10.80;7.30;;;2.90;99.90;;;;;;5049849;28;20123;-73
2021/11/23 10:49:36;;;;;;;10.60;7.93;;;3.00;99.90;;;;;;5053142;28;20073;-74
2021/11/23 10:52:26;;;;;;;13.05;8.70;;;3.00;99.90;;;;;;5053933;28;20124;-75
2021/11/23 10:54:55;;;;;;;10.93;8.30;;;3.10;99.90;;;;;;5053983;28;20116;-74
2021/11/23 10:57:23;;;;;;;12.00;7.72;;;3.20;99.90;;;;;;5052933;28;20141;-74
2021/11/23 10:59:55;;;;;;;11.90;7.75;;;3.40;99.90;;;;;;5052583;28;20051;-74
2021/11/23 11:02:22;;;;;;;12.63;8.00;;;3.40;99.90;;;;;;5052523;28;20618;-74
2021/11/23 11:04:54;;;;;;;12.90;7.90;;;3.50;99.90;;;;;;5047162;28;20041;-73
2021/11/23 11:07:21;;;;;;;12.02;7.88;;;3.60;99.90;;;;;;5052009;28;20128;-74
2021/11/23 11:09:49;;;;;;;23.33;8.80;;;3.60;99.90;;;;;;5035441;28;20056;-74
2021/11/23 11:12:16;;;;;;;13.77;8.95;;;3.70;99.90;;;;;;5053350;28;20139;-74
2021/11/23 11:14:50;;;;;;;13.05;8.60;;;3.70;99.90;;;;;;5030237;28;20056;-74
2021/11/23 11:17:17;;;;;;;15.90;9.20;;;3.70;99.90;;;;;;5053768;28;20404;-72
2021/11/23 11:19:51;;;;;;;12.88;8.77;;;3.70;99.90;;;;;;5052991;28;20041;-72
2021/11/23 11:22:26;;;;;;;11.20;8.48;;;3.70;99.90;;;;;;5052030;28;20407;-74
2021/11/23 11:25:08;;;;;;;12.65;8.27;;;3.70;99.90;;;;;;5036369;28;20041;-74
2021/11/23 11:27:39;;;;;;;16.13;11.85;;;3.70;99.90;;;;;;5046340;28;20068;-74
2021/11/23 11:30:42;;;;;;;14.57;10.35;;;3.80;99.90;;;;;;5050643;28;20051;-74
2021/11/23 11:33:08;;;;;;;16.90;11.05;;;3.80;99.90;;;;;;5051792;28;20084;-74
2021/11/23 11:35:40;;;;;;;13.30;9.73;;;3.80;99.90;;;;;;5050148;28;20522;-75
2021/11/23 11:38:31;;;;;;;13.70;9.75;;;3.90;99.90;;;;;;5051764;28;20140;-73
2021/11/23 11:41:06;;;;;;;13.88;9.88;;;4.00;99.90;;;;;;5046598;28;20410;-74
2021/11/23 11:43:43;;;;;;;15.05;10.63;;;4.00;99.90;;;;;;5035673;28;20139;-72
2021/11/23 11:46:28;;;;;;;17.80;11.95;;;4.10;99.90;;;;;;5051610;28;20041;-75
2021/11/23 11:49:00;;;;;;;19.58;10.20;;;4.20;99.90;;;;;;5051737;28;20131;-74
2021/11/23 11:51:33;;;;;;;12.13;8.75;;;4.30;99.90;;;;;;5048594;28;20145;-72
2021/11/23 11:54:18;;;;;;;13.18;9.00;;;4.30;99.90;;;;;;5048566;28;20198;-74
2021/11/23 11:56:51;;;;;;;14.93;9.60;;;4.40;99.90;;;;;;5050795;28;20120;-73
2021/11/23 11:59:18;;;;;;;23.92;12.52;;;4.60;99.90;;;;;;5033644;28;20562;-75
2021/11/23 12:02:15;;;;;;;13.15;9.48;;;4.60;99.90;;;;;;5013885;28;20584;-74
2021/11/23 12:05:01;;;;;;;14.25;9.43;;;4.70;99.90;;;;;;5031457;28;20116;-74
2021/11/23 12:07:43;;;;;;;17.75;10.88;;;4.90;99.90;;;;;;5030913;28;20128;-74
2021/11/23 12:10:22;;;;;;;25.33;14.27;;;4.90;99.90;;;;;;5014288;28;20052;-74
2021/11/23 12:13:11;;;;;;;17.83;11.68;;;4.80;99.90;;;;;;5021284;28;20394;-74
2021/11/23 12:16:10;;;;;;;16.88;10.48;;;4.70;99.90;;;;;;5031096;28;20136;-73
2021/11/23 12:18:44;;;;;;;14.65;9.60;;;4.70;99.90;;;;;;5063928;28;20559;-74
2021/11/23 12:21:19;;;;;;;17.83;10.23;;;4.70;99.90;;;;;;5045372;28;20048;-73
2021/11/23 12:23:56;;;;;;;16.25;10.38;;;4.70;99.90;;;;;;5046217;28;20273;-74
2021/11/23 12:26:35;;;;;;;18.90;10.20;;;4.70;99.90;;;;;;5048990;28;20047;-73
2021/11/23 12:29:13;;;;;;;17.83;9.57;;;4.80;99.90;;;;;;5037440;28;20128;-72
2021/11/23 12:31:51;;;;;;;15.68;8.90;;;4.90;99.90;;;;;;5028979;28;20069;-71
2021/11/23 12:34:22;;;;;;;15.38;11.20;;;5.00;99.90;;;;;;5030058;28;20087;-74
2021/11/23 12:36:52;;;;;;;14.48;9.90;;;5.00;99.90;;;;;;5046719;28;20068;-74
2021/11/23 12:39:37;;;;;;;13.95;9.30;;;5.00;99.90;;;;;;5050377;28;20041;-73
2021/11/23 12:42:10;;;;;;;12.45;9.25;;;5.10;99.90;;;;;;5039942;28;20045;-74
2021/11/23 12:44:47;;;;;;;12.65;9.57;;;5.20;99.90;;;;;;5034433;28;20055;-74
2021/11/23 12:47:21;;;;;;;13.85;9.43;;;5.50;99.90;;;;;;5047504;28;20450;-74
2021/11/23 12:49:59;;;;;;;13.45;8.43;;;5.60;99.90;;;;;;5049459;28;20073;-72
2021/11/23 12:52:28;;;;;;;13.07;9.63;;;5.70;99.90;;;;;;5047172;28;20075;-74
2021/11/23 12:55:02;;;;;;;10.90;8.93;;;5.80;99.90;;;;;;5045807;28;20558;-74
2021/11/23 12:57:34;;;;;;;13.48;8.68;;;5.70;99.90;;;;;;5048662;28;20139;-74
2021/11/23 13:00:08;;;;;;;12.65;8.52;;;5.70;99.90;;;;;;5048771;28;20124;-74
2021/11/23 13:02:46;;;;;;;13.07;9.35;;;5.60;99.90;;;;;;5046474;28;20067;-72
2021/11/23 13:05:26;;;;;;;12.52;9.48;;;5.40;99.90;;;;;;5043186;28;20044;-73
2021/11/23 13:08:05;;;;;;;12.10;9.23;;;5.30;99.90;;;;;;5031624;28;20953;-74
2021/11/23 13:10:40;;;;;;;15.68;9.35;;;5.20;99.90;;;;;;5050250;28;20068;-73
2021/11/23 13:13:14;;;;;;;14.85;10.65;;;5.10;99.90;;;;;;5048138;28;20045;-74